TAF Text Data
IDs:
Format:
Raw Decoded Include METAR

Data at: 1422 UTC 10 Jul 2020

KAUG 101128Z 1012/1112 VRB03KT 1/4SM FG OVC002
  TEMPO 1012/1014 4SM BR OVC006
  FM101400 16006KT P6SM SCT050
  FM110000 15005KT 3SM -SHRA OVC005
  FM110400 10007KT 2SM -SHRA OVC002